createdAt,value
2017-07-22T00:00:51.102Z,21.90
2017-07-22T00:03:19.408Z,21.80
2017-07-22T00:05:47.703Z,21.90
2017-07-22T00:08:15.984Z,21.90
2017-07-22T00:10:44.288Z,21.80
2017-07-22T00:13:12.563Z,21.80
2017-07-22T00:15:40.845Z,21.80
2017-07-22T00:18:09.140Z,21.70
2017-07-22T00:20:38.212Z,21.80
2017-07-22T00:23:06.484Z,21.70
2017-07-22T00:25:35.572Z,21.60
2017-07-22T00:28:04.603Z,21.70
2017-07-22T00:30:32.881Z,21.60
2017-07-22T00:33:01.199Z,21.60
2017-07-22T00:35:29.471Z,21.60
2017-07-22T00:37:57.752Z,21.50
2017-07-22T00:40:26.447Z,21.40
2017-07-22T00:42:54.717Z,21.50
2017-07-22T00:45:23.748Z,21.40
2017-07-22T00:47:52.075Z,21.30
2017-07-22T00:50:20.385Z,21.40
2017-07-22T00:52:48.656Z,21.50
2017-07-22T00:55:16.965Z,21.50
2017-07-22T00:57:45.300Z,21.40
2017-07-22T01:00:14.382Z,21.50
2017-07-22T01:02:43.567Z,21.40
2017-07-22T01:05:12.600Z,21.50
2017-07-22T01:07:40.888Z,21.50
2017-07-22T01:10:09.180Z,21.50
2017-07-22T01:12:38.243Z,21.50
2017-07-22T01:15:06.504Z,21.40
2017-07-22T01:17:35.583Z,21.30
2017-07-22T01:20:03.847Z,21.20
2017-07-22T01:22:32.880Z,21.40
2017-07-22T01:25:01.212Z,21.30
2017-07-22T01:27:29.472Z,21.30
2017-07-22T01:29:57.795Z,21.40
2017-07-22T01:32:26.124Z,21.40
2017-07-22T01:34:54.403Z,21.40
2017-07-22T01:37:22.676Z,21.10
2017-07-22T01:39:51.024Z,21.10
2017-07-22T01:42:19.298Z,21.00
2017-07-22T01:44:47.580Z,21.10
2017-07-22T01:47:15.883Z,21.00
2017-07-22T01:49:44.139Z,21.10
2017-07-22T01:52:12.411Z,21.10
2017-07-22T01:54:40.732Z,21.20
2017-07-22T01:57:09.787Z,21.20
2017-07-22T01:59:38.059Z,21.10
2017-07-22T02:02:06.400Z,21.10
2017-07-22T02:04:34.684Z,20.90
2017-07-22T02:07:02.964Z,20.80
2017-07-22T02:09:32.044Z,20.70
2017-07-22T02:12:01.067Z,20.70
2017-07-22T02:14:29.351Z,20.60
2017-07-22T02:16:57.656Z,20.60
2017-07-22T02:19:25.926Z,20.60
2017-07-22T02:21:54.237Z,20.60
2017-07-22T02:24:22.560Z,20.70
2017-07-22T02:26:50.833Z,20.80
2017-07-22T02:29:19.120Z,20.70
2017-07-22T02:31:47.423Z,20.70
2017-07-22T02:34:16.675Z,20.80
2017-07-22T02:36:44.945Z,20.70
2017-07-22T02:39:13.262Z,20.70
2017-07-22T02:41:41.526Z,20.60
2017-07-22T02:44:09.799Z,20.60
2017-07-22T02:46:38.116Z,20.70
2017-07-22T02:49:07.425Z,20.70
2017-07-22T02:51:35.691Z,20.70
2017-07-22T02:54:03.988Z,20.70
2017-07-22T02:56:32.304Z,20.60
2017-07-22T02:59:00.592Z,20.60
2017-07-22T03:01:28.903Z,20.60
2017-07-22T03:03:57.952Z,20.50
2017-07-22T03:06:26.260Z,20.50
2017-07-22T03:08:54.560Z,20.50
2017-07-22T03:11:22.840Z,20.60
2017-07-22T03:13:51.144Z,20.50
2017-07-22T03:16:19.439Z,20.40
2017-07-22T03:18:47.708Z,20.40
2017-07-22T03:21:16.005Z,20.40
2017-07-22T03:23:45.103Z,20.40
2017-07-22T03:26:13.370Z,20.30
2017-07-22T03:28:43.637Z,20.40
2017-07-22T03:31:11.942Z,20.30
2017-07-22T03:33:40.235Z,20.30
2017-07-22T03:36:08.499Z,20.20
2017-07-22T03:38:36.800Z,20.10
2017-07-22T03:41:05.835Z,19.90
2017-07-22T03:43:34.124Z,19.90
2017-07-22T03:46:02.483Z,20.00
2017-07-22T03:48:30.730Z,20.00
2017-07-22T03:50:59.015Z,20.00
2017-07-22T03:53:27.320Z,19.90
2017-07-22T03:55:55.583Z,19.80
2017-07-22T03:58:23.856Z,19.80
2017-07-22T04:00:52.170Z,19.70
2017-07-22T04:03:21.196Z,19.70
2017-07-22T04:05:49.487Z,19.60
2017-07-22T04:08:17.788Z,19.60
2017-07-22T04:10:46.076Z,19.60
2017-07-22T04:13:14.348Z,19.60
2017-07-22T04:15:42.689Z,19.70
2017-07-22T04:18:10.948Z,19.80
2017-07-22T04:20:39.216Z,19.80
2017-07-22T04:23:07.568Z,19.60
2017-07-22T04:25:35.836Z,19.70
2017-07-22T04:28:04.103Z,19.70
2017-07-22T04:30:32.428Z,19.60
2017-07-22T04:33:01.575Z,19.60
2017-07-22T04:35:29.858Z,19.60
2017-07-22T04:37:58.168Z,19.50
2017-07-22T04:40:26.436Z,19.50
2017-07-22T04:42:54.719Z,19.30
2017-07-22T04:45:23.032Z,19.30
2017-07-22T04:47:51.296Z,19.30
2017-07-22T04:50:19.578Z,19.30
2017-07-22T04:52:47.875Z,19.40
2017-07-22T04:55:16.155Z,19.40
2017-07-22T04:57:45.196Z,19.20
2017-07-22T05:00:13.483Z,19.20
2017-07-22T05:02:41.752Z,19.20
2017-07-22T05:05:10.032Z,19.20
2017-07-22T05:07:38.528Z,19.20
2017-07-22T05:10:06.791Z,19.10
2017-07-22T05:12:35.095Z,19.20
2017-07-22T05:15:03.443Z,19.20
2017-07-22T05:17:31.713Z,19.20
2017-07-22T05:19:59.975Z,19.30
2017-07-22T05:22:28.324Z,19.30
2017-07-22T05:24:56.591Z,19.40
2017-07-22T05:27:24.859Z,19.30
2017-07-22T05:29:53.171Z,19.40
2017-07-22T05:32:22.372Z,19.40
2017-07-22T05:34:50.652Z,19.50
2017-07-22T05:37:18.959Z,19.50
2017-07-22T05:39:47.226Z,19.60
2017-07-22T05:42:15.547Z,19.50
2017-07-22T05:44:43.844Z,19.60
2017-07-22T05:47:12.868Z,19.70
2017-07-22T05:49:41.146Z,19.60
2017-07-22T05:52:09.468Z,19.60
2017-07-22T05:54:37.740Z,19.70
2017-07-22T05:57:06.008Z,19.70
2017-07-22T05:59:34.308Z,19.70
2017-07-22T06:02:02.582Z,19.80
2017-07-22T06:04:30.867Z,19.70
2017-07-22T06:06:59.168Z,19.60
2017-07-22T06:09:27.435Z,19.70
2017-07-22T06:11:55.727Z,19.80
2017-07-22T06:14:24.839Z,19.90
2017-07-22T06:16:53.137Z,19.80
2017-07-22T06:19:21.405Z,20.00
2017-07-22T06:21:49.723Z,20.00
2017-07-22T06:24:18.135Z,20.00
2017-07-22T06:26:46.408Z,20.10
2017-07-22T06:29:14.717Z,19.90
2017-07-22T06:31:42.989Z,20.00
2017-07-22T06:34:11.256Z,20.10
2017-07-22T06:36:39.764Z,20.40
2017-07-22T06:39:08.035Z,20.60
2017-07-22T06:41:36.339Z,20.80
2017-07-22T06:44:04.687Z,21.10
2017-07-22T06:46:32.949Z,21.20
2017-07-22T06:49:01.222Z,21.10
2017-07-22T06:51:29.580Z,21.30
2017-07-22T06:53:57.848Z,21.40
2017-07-22T06:56:26.128Z,21.60
2017-07-22T06:58:54.434Z,21.40
2017-07-22T07:01:23.476Z,21.50
2017-07-22T07:03:51.744Z,21.40
2017-07-22T07:06:20.060Z,21.50
2017-07-22T07:08:48.367Z,21.40
2017-07-22T07:11:16.666Z,21.50
2017-07-22T07:13:45.734Z,21.30
2017-07-22T07:16:14.048Z,21.30
2017-07-22T07:18:42.374Z,21.30
2017-07-22T07:21:10.685Z,21.30
2017-07-22T07:23:38.960Z,21.30
2017-07-22T07:26:07.239Z,21.30
2017-07-22T07:28:36.336Z,21.40
2017-07-22T07:31:04.622Z,21.40
2017-07-22T07:33:32.875Z,21.40
2017-07-22T07:36:01.215Z,21.50
2017-07-22T07:38:29.491Z,21.40
2017-07-22T07:40:57.874Z,21.50
2017-07-22T07:43:26.175Z,21.50
2017-07-22T07:45:54.468Z,21.50
2017-07-22T07:48:23.527Z,21.60
2017-07-22T07:50:51.827Z,21.50
2017-07-22T07:53:20.143Z,21.70
2017-07-22T07:55:48.444Z,21.70
2017-07-22T07:58:16.756Z,21.60
2017-07-22T08:00:45.031Z,21.70
2017-07-22T08:03:13.327Z,21.80
2017-07-22T08:05:41.635Z,22.00
2017-07-22T08:08:09.924Z,22.20
2017-07-22T08:10:38.224Z,22.40
2017-07-22T08:13:06.531Z,22.50
2017-07-22T08:15:34.808Z,22.60
2017-07-22T08:18:03.843Z,22.30
2017-07-22T08:20:32.175Z,22.30
2017-07-22T08:23:00.455Z,22.10
2017-07-22T08:25:28.738Z,22.20
2017-07-22T08:27:57.059Z,22.10
2017-07-22T08:30:25.340Z,22.20
2017-07-22T08:32:53.620Z,22.40
2017-07-22T08:35:21.968Z,22.60
2017-07-22T08:37:50.239Z,22.70
2017-07-22T08:40:18.521Z,22.80
2017-07-22T08:42:46.880Z,23.10
2017-07-22T08:45:15.149Z,23.40
2017-07-22T08:47:43.416Z,23.70
2017-07-22T08:50:11.736Z,23.40
2017-07-22T08:52:40.060Z,23.70
2017-07-22T08:55:08.361Z,23.80
2017-07-22T08:57:36.673Z,23.80
2017-07-22T09:00:05.712Z,23.70
2017-07-22T09:02:33.983Z,23.60
2017-07-22T09:05:02.300Z,23.90
2017-07-22T09:07:30.568Z,24.20
2017-07-22T09:09:58.872Z,24.10
2017-07-22T09:12:27.206Z,24.40
2017-07-22T09:14:55.475Z,24.50
2017-07-22T09:17:23.768Z,24.70
2017-07-22T09:19:52.075Z,25.00
2017-07-22T09:22:20.365Z,24.90
2017-07-22T09:24:48.656Z,25.00
2017-07-22T09:27:16.964Z,25.00
2017-07-22T09:29:45.239Z,24.90
2017-07-22T09:32:13.528Z,25.00
2017-07-22T09:34:42.021Z,25.30
2017-07-22T09:37:11.072Z,25.10
2017-07-22T09:39:39.358Z,25.00
2017-07-22T09:42:07.704Z,25.10
2017-07-22T09:44:35.972Z,25.30
2017-07-22T09:47:04.283Z,25.30
2017-07-22T09:49:32.671Z,25.10
2017-07-22T09:52:00.944Z,25.20
2017-07-22T09:54:29.220Z,25.00
2017-07-22T09:56:57.576Z,25.20
2017-07-22T09:59:25.843Z,25.10
2017-07-22T10:01:54.116Z,25.30
2017-07-22T10:04:23.216Z,25.60
2017-07-22T10:06:51.692Z,25.50
2017-07-22T10:09:19.976Z,25.70
2017-07-22T10:11:48.388Z,26.00
2017-07-22T10:14:17.559Z,26.20
2017-07-22T10:16:45.868Z,26.20
2017-07-22T10:19:14.191Z,26.50
2017-07-22T10:21:43.236Z,26.70
2017-07-22T10:24:11.534Z,26.70
2017-07-22T10:26:40.024Z,26.80
2017-07-22T10:29:08.305Z,26.80
2017-07-22T10:31:36.576Z,26.90
2017-07-22T10:34:04.888Z,26.80
2017-07-22T10:36:33.934Z,26.40
2017-07-22T10:39:02.240Z,26.40
2017-07-22T10:41:31.327Z,26.30
2017-07-22T10:44:00.951Z,26.30
2017-07-22T10:46:29.242Z,26.20
2017-07-22T10:48:57.583Z,26.30
2017-07-22T10:51:25.879Z,26.40
2017-07-22T10:53:54.964Z,26.40
2017-07-22T10:56:24.272Z,26.20
2017-07-22T10:58:52.553Z,26.20
2017-07-22T11:01:20.828Z,26.20
2017-07-22T11:03:49.208Z,26.20
2017-07-22T11:06:17.483Z,26.80
2017-07-22T11:08:45.743Z,27.20
2017-07-22T11:11:14.083Z,27.10
2017-07-22T11:13:42.384Z,27.20
2017-07-22T11:16:11.435Z,27.10
2017-07-22T11:18:39.747Z,27.00
2017-07-22T11:21:08.038Z,26.90
2017-07-22T11:23:36.360Z,27.20
2017-07-22T11:26:04.673Z,27.60
2017-07-22T11:28:32.927Z,27.80
2017-07-22T11:31:01.236Z,27.70
2017-07-22T11:33:30.343Z,27.40
2017-07-22T11:35:58.619Z,27.30
2017-07-22T11:38:26.895Z,27.40
2017-07-22T11:40:55.668Z,27.30
2017-07-22T11:43:23.968Z,27.10
2017-07-22T11:45:53.003Z,27.20
2017-07-22T11:48:21.317Z,27.20
2017-07-22T11:50:50.351Z,26.70
2017-07-22T11:53:18.663Z,26.60
2017-07-22T11:55:47.748Z,27.80
2017-07-22T11:58:18.000Z,28.10
2017-07-22T12:00:46.301Z,28.10
2017-07-22T12:03:15.371Z,27.90
2017-07-22T12:05:44.421Z,28.20
2017-07-22T12:08:12.691Z,28.10
2017-07-22T12:10:40.996Z,28.60
2017-07-22T12:13:10.065Z,28.70
2017-07-22T12:15:38.324Z,28.70
2017-07-22T12:18:07.413Z,28.60
2017-07-22T12:20:36.448Z,28.40
2017-07-22T12:23:04.703Z,28.30
2017-07-22T12:25:33.010Z,28.60
2017-07-22T12:28:02.039Z,29.30
2017-07-22T12:30:30.327Z,29.20
2017-07-22T12:32:58.624Z,29.60
2017-07-22T12:35:26.909Z,29.90
2017-07-22T12:37:55.229Z,30.00
2017-07-22T12:40:23.527Z,29.90
2017-07-22T12:42:51.800Z,30.00
2017-07-22T12:45:20.108Z,30.30
2017-07-22T12:47:48.515Z,30.30
2017-07-22T12:50:16.808Z,30.80
2017-07-22T12:52:45.067Z,30.90
2017-07-22T12:55:13.391Z,30.50
2017-07-22T12:57:41.664Z,30.40
2017-07-22T13:00:09.937Z,30.10
2017-07-22T13:02:38.262Z,30.50
2017-07-22T13:05:07.348Z,30.70
2017-07-22T13:07:36.382Z,30.50
2017-07-22T13:10:04.689Z,30.50
2017-07-22T13:12:32.957Z,30.80
2017-07-22T13:15:01.224Z,31.00
2017-07-22T13:17:29.536Z,31.30
2017-07-22T13:19:57.807Z,31.50
2017-07-22T13:22:26.092Z,31.80
2017-07-22T13:24:55.148Z,31.90
2017-07-22T13:27:24.217Z,31.90
2017-07-22T13:29:52.494Z,31.80
2017-07-22T13:32:20.800Z,32.00
2017-07-22T13:34:49.075Z,31.90
2017-07-22T13:37:17.352Z,32.00
2017-07-22T13:39:45.664Z,32.30
2017-07-22T13:42:13.945Z,32.00
2017-07-22T13:44:42.240Z,32.20
2017-07-22T13:47:10.572Z,32.00
2017-07-22T13:49:38.863Z,32.30
2017-07-22T13:52:07.131Z,32.60
2017-07-22T13:54:35.483Z,32.70
2017-07-22T13:57:03.751Z,32.50
2017-07-22T13:59:32.052Z,31.80
2017-07-22T14:02:01.103Z,30.50
2017-07-22T14:04:29.384Z,30.50
2017-07-22T14:06:58.415Z,30.00
2017-07-22T14:09:27.241Z,29.90
2017-07-22T14:11:56.337Z,30.90
2017-07-22T14:14:25.370Z,31.10
2017-07-22T14:16:53.699Z,31.10
2017-07-22T14:19:22.006Z,31.70
2017-07-22T14:21:51.048Z,32.40
2017-07-22T14:24:19.360Z,32.40
2017-07-22T14:26:47.631Z,32.00
2017-07-22T14:29:15.903Z,31.30
2017-07-22T14:31:44.199Z,31.20
2017-07-22T14:34:12.480Z,31.50
2017-07-22T14:36:40.751Z,30.90
2017-07-22T14:39:09.083Z,31.50
2017-07-22T14:41:37.363Z,32.00
2017-07-22T14:44:05.636Z,32.40
2017-07-22T14:46:33.932Z,32.10
2017-07-22T14:49:02.215Z,32.00
2017-07-22T14:51:30.483Z,31.50
2017-07-22T14:53:58.796Z,30.90
2017-07-22T14:56:27.827Z,29.90
2017-07-22T14:58:56.096Z,29.80
2017-07-22T15:01:24.395Z,29.60
2017-07-22T15:03:53.444Z,29.30
2017-07-22T15:06:21.731Z,29.30
2017-07-22T15:08:50.820Z,29.50
2017-07-22T15:11:19.859Z,29.50
2017-07-22T15:13:48.155Z,29.50
2017-07-22T15:16:17.228Z,29.50
2017-07-22T15:18:45.556Z,29.40
2017-07-22T15:21:13.823Z,29.10
2017-07-22T15:23:42.135Z,28.90
2017-07-22T15:26:10.423Z,28.70
2017-07-22T15:28:38.719Z,28.50
2017-07-22T15:31:07.037Z,28.40
2017-07-22T15:33:35.311Z,28.20
2017-07-22T15:36:03.583Z,28.20
2017-07-22T15:38:31.898Z,28.00
2017-07-22T15:41:00.189Z,27.90
2017-07-22T15:43:28.460Z,27.90
2017-07-22T15:45:56.875Z,27.70
2017-07-22T15:48:25.918Z,27.90
2017-07-22T15:50:54.182Z,27.80
2017-07-22T15:53:22.527Z,27.90
2017-07-22T15:55:50.790Z,28.00
2017-07-22T15:58:19.084Z,27.90
2017-07-22T16:00:47.484Z,27.90
2017-07-22T16:03:15.825Z,28.00
2017-07-22T16:05:44.112Z,27.90
2017-07-22T16:08:12.412Z,27.90
2017-07-22T16:10:40.693Z,27.90
2017-07-22T16:13:08.972Z,28.00
2017-07-22T16:15:37.285Z,28.50
2017-07-22T16:18:05.567Z,28.70
2017-07-22T16:20:33.852Z,28.70
2017-07-22T16:23:02.167Z,28.70
2017-07-22T16:25:30.440Z,28.70
2017-07-22T16:27:58.731Z,28.70
2017-07-22T16:30:27.060Z,28.50
2017-07-22T16:32:55.377Z,28.30
2017-07-22T16:35:24.423Z,28.50
2017-07-22T16:37:52.715Z,28.40
2017-07-22T16:40:21.760Z,28.30
2017-07-22T16:42:50.022Z,28.30
2017-07-22T16:45:18.371Z,28.20
2017-07-22T16:47:46.687Z,28.20
2017-07-22T16:50:15.724Z,28.30
2017-07-22T16:52:44.253Z,28.20
2017-07-22T16:55:12.511Z,28.20
2017-07-22T16:57:40.790Z,28.20
2017-07-22T17:00:09.087Z,28.20
2017-07-22T17:02:37.352Z,28.20
2017-07-22T17:05:05.628Z,28.20
2017-07-22T17:07:34.830Z,28.20
2017-07-22T17:10:03.859Z,28.20
2017-07-22T17:12:32.135Z,28.10
2017-07-22T17:15:00.456Z,28.00
2017-07-22T17:17:28.796Z,28.00
2017-07-22T17:19:57.099Z,28.10
2017-07-22T17:22:25.417Z,28.00
2017-07-22T17:24:53.708Z,28.00
2017-07-22T17:27:21.980Z,28.00
2017-07-22T17:29:50.300Z,28.00
2017-07-22T17:32:18.608Z,28.00
2017-07-22T17:34:46.879Z,28.00
2017-07-22T17:37:15.191Z,28.10
2017-07-22T17:39:43.485Z,28.10
2017-07-22T17:42:11.788Z,28.10
2017-07-22T17:47:18.044Z,28.10
2017-07-22T17:49:47.149Z,27.90
2017-07-22T17:52:15.411Z,27.80
2017-07-22T17:54:43.712Z,27.70
2017-07-22T17:57:12.036Z,27.70
2017-07-22T17:59:40.315Z,27.70
2017-07-22T18:02:08.628Z,27.60
2017-07-22T18:04:36.944Z,27.70
2017-07-22T18:07:05.212Z,27.60
2017-07-22T18:09:33.483Z,27.60
2017-07-22T18:12:01.840Z,27.60
2017-07-22T18:14:30.108Z,27.60
2017-07-22T18:16:58.392Z,27.40
2017-07-22T18:19:26.707Z,27.30
2017-07-22T18:21:54.975Z,27.20
2017-07-22T18:24:23.268Z,27.10
2017-07-22T18:26:51.608Z,27.10
2017-07-22T18:29:19.880Z,27.10
2017-07-22T18:31:48.185Z,27.10
2017-07-22T18:34:17.267Z,27.10
2017-07-22T18:36:45.583Z,27.00
2017-07-22T18:39:13.880Z,27.00
2017-07-22T18:41:42.224Z,27.00
2017-07-22T18:44:10.501Z,26.90
2017-07-22T18:46:38.791Z,26.90
2017-07-22T18:49:07.096Z,26.90
2017-07-22T18:51:35.384Z,26.90
2017-07-22T18:54:04.478Z,26.70
2017-07-22T18:56:32.847Z,26.70
2017-07-22T18:59:01.127Z,26.60
2017-07-22T19:01:29.408Z,26.60
2017-07-22T19:03:57.733Z,26.60
2017-07-22T19:06:26.029Z,26.50
2017-07-22T19:08:54.305Z,26.50
2017-07-22T19:11:22.625Z,26.40
2017-07-22T19:13:50.907Z,26.30
2017-07-22T19:16:19.182Z,26.20
2017-07-22T19:18:47.508Z,26.10
2017-07-22T19:21:15.788Z,26.00
2017-07-22T19:23:44.078Z,26.00
2017-07-22T19:26:12.420Z,25.90
2017-07-22T19:31:18.344Z,25.60
2017-07-22T19:33:46.651Z,25.50
2017-07-22T19:36:14.938Z,25.40
2017-07-22T19:38:44.011Z,25.00
2017-07-22T19:41:13.068Z,24.90
2017-07-22T19:43:41.344Z,24.80
2017-07-22T19:46:10.453Z,24.70
2017-07-22T19:48:38.746Z,24.60
2017-07-22T19:51:07.040Z,24.70
2017-07-22T19:53:35.339Z,24.50
2017-07-22T19:56:03.619Z,24.40
2017-07-22T19:58:31.899Z,24.40
2017-07-22T20:01:00.225Z,24.40
2017-07-22T20:03:28.505Z,24.30
2017-07-22T20:05:56.786Z,24.30
2017-07-22T20:08:25.180Z,24.20
2017-07-22T20:10:54.215Z,24.10
2017-07-22T20:13:22.618Z,24.00
2017-07-22T20:15:50.968Z,24.00
2017-07-22T20:18:19.252Z,24.00
2017-07-22T20:20:48.287Z,23.90
2017-07-22T20:23:16.640Z,23.80
2017-07-22T20:25:44.960Z,23.80
2017-07-22T20:28:14.020Z,23.80
2017-07-22T20:30:42.315Z,23.80
2017-07-22T20:33:10.623Z,23.70
2017-07-22T20:35:38.930Z,23.60
2017-07-22T20:38:07.232Z,23.50
2017-07-22T20:40:35.530Z,23.40
2017-07-22T20:43:03.804Z,23.40
2017-07-22T20:45:32.174Z,23.20
2017-07-22T20:48:00.433Z,23.10
2017-07-22T20:50:29.483Z,22.90
2017-07-22T20:52:57.816Z,22.80
2017-07-22T20:55:26.088Z,22.70
2017-07-22T20:57:54.383Z,22.50
2017-07-22T21:00:22.695Z,22.40
2017-07-22T21:02:50.963Z,22.30
2017-07-22T21:05:19.250Z,22.20
2017-07-22T21:07:47.548Z,22.10
2017-07-22T21:10:16.631Z,22.20
2017-07-22T21:12:45.655Z,22.30
2017-07-22T21:15:13.963Z,22.30
2017-07-22T21:17:43.003Z,22.10
2017-07-22T21:20:11.315Z,22.10
2017-07-22T21:22:39.675Z,22.10
2017-07-22T21:25:07.934Z,22.10
2017-07-22T21:27:36.219Z,21.90
2017-07-22T21:30:04.543Z,21.70
2017-07-22T21:32:32.816Z,21.60
2017-07-22T21:35:01.859Z,21.30
2017-07-22T21:37:30.199Z,21.20
2017-07-22T21:39:58.469Z,21.20
2017-07-22T21:42:26.740Z,21.10
2017-07-22T21:44:55.053Z,21.10
2017-07-22T21:47:24.088Z,21.30
2017-07-22T21:49:52.357Z,21.20
2017-07-22T21:52:20.839Z,21.30
2017-07-22T21:54:49.103Z,21.30
2017-07-22T21:57:18.335Z,21.10
2017-07-22T21:59:46.652Z,21.10
2017-07-22T22:02:15.696Z,20.90
2017-07-22T22:04:44.015Z,20.80
2017-07-22T22:07:12.465Z,20.90
2017-07-22T22:09:41.553Z,20.80
2017-07-22T22:12:10.649Z,20.80
2017-07-22T22:14:38.943Z,20.80
2017-07-22T22:17:07.212Z,20.80
2017-07-22T22:19:35.471Z,20.70
2017-07-22T22:22:03.794Z,20.60
2017-07-22T22:24:34.466Z,20.70
2017-07-22T22:27:02.724Z,20.70
2017-07-22T22:29:33.460Z,20.70
2017-07-22T22:32:01.752Z,20.70
2017-07-22T22:34:30.035Z,20.70
2017-07-22T22:36:58.351Z,20.60
2017-07-22T22:39:26.676Z,20.60
2017-07-22T22:41:55.699Z,20.60
2017-07-22T22:44:24.032Z,20.60
2017-07-22T22:46:52.287Z,20.60
2017-07-22T22:49:20.556Z,20.50
2017-07-22T22:51:49.643Z,20.30
2017-07-22T22:54:17.903Z,20.30
2017-07-22T22:56:46.193Z,20.30
2017-07-22T22:59:14.493Z,20.30
2017-07-22T23:01:42.768Z,20.30
2017-07-22T23:04:11.064Z,20.30
2017-07-22T23:06:40.147Z,20.30
2017-07-22T23:09:08.420Z,20.30
2017-07-22T23:11:37.914Z,20.40
2017-07-22T23:14:06.244Z,20.30
2017-07-22T23:16:34.572Z,20.40
2017-07-22T23:19:02.844Z,20.40
2017-07-22T23:21:31.160Z,20.40
2017-07-22T23:24:00.196Z,20.40
2017-07-22T23:26:28.464Z,20.40
2017-07-22T23:28:56.963Z,20.50
2017-07-22T23:31:25.995Z,20.70
2017-07-22T23:33:54.271Z,20.70
2017-07-22T23:36:22.572Z,20.80
2017-07-22T23:38:51.616Z,20.80
2017-07-22T23:41:19.944Z,20.80
2017-07-22T23:43:48.347Z,20.80
2017-07-22T23:46:16.615Z,20.90
2017-07-22T23:48:44.888Z,20.90
2017-07-22T23:51:13.234Z,21.00
2017-07-22T23:53:41.530Z,21.00
2017-07-22T23:56:10.572Z,20.90
2017-07-22T23:58:39.109Z,20.90
